Time;durP1;ratioP1;P1;durP2;ratioP2;P2;SDS_P1;SDS_P2;PMS_P1;PMS_P2;Temp;Humidity;BMP_temperature;BMP_pressure;BME280_temperature;BME280_humidity;BME280_pressure;Samples;Min_cycle;Max_cycle;Signal;HPM_P1;HPM_P2
2021/12/19 00:10:02;;;;;;;29.00;11.47;;;2.70;99.90;;;;;;4954101;28;20038;-91
2021/12/19 00:12:30;;;;;;;31.17;11.17;;;2.60;99.90;;;;;;5009816;28;20823;-91
2021/12/19 00:15:08;;;;;;;;;;;;;;;;;;;;;
2021/12/19 00:17:35;;;;;;;29.27;10.30;;;2.70;99.90;;;;;;5032443;28;20041;-90
2021/12/19 00:20:00;;;;;;;31.40;11.23;;;2.60;99.90;;;;;;5008978;28;20056;-90
2021/12/19 00:22:26;;;;;;;27.67;11.33;;;2.70;99.90;;;;;;5008923;28;20037;-91
2021/12/19 00:24:52;;;;;;;28.50;10.20;;;2.60;99.90;;;;;;5001306;28;20022;-91
2021/12/19 00:27:18;;;;;;;27.20;9.27;;;2.50;99.90;;;;;;4998270;28;20026;-91
2021/12/19 00:29:43;;;;;;;25.17;9.23;;;2.50;99.90;;;;;;5013958;28;20029;-90
2021/12/19 00:32:12;;;;;;;28.17;9.50;;;2.40;99.90;;;;;;5017468;28;20030;-91
2021/12/19 00:34:40;;;;;;;29.97;10.63;;;2.40;99.90;;;;;;5016330;28;20045;-91
2021/12/19 00:37:12;;;;;;;24.80;9.13;;;2.30;99.90;;;;;;5015765;28;20172;-91
2021/12/19 00:39:48;;;;;;;24.98;7.57;;;2.30;99.90;;;;;;4997372;28;20034;-91
2021/12/19 00:42:32;;;;;;;30.10;9.67;;;2.30;99.90;;;;;;4997544;28;20030;-91
2021/12/19 00:45:01;;;;;;;26.53;9.47;;;2.30;99.90;;;;;;5016186;28;20028;-91
2021/12/19 00:47:30;;;;;;;29.17;9.53;;;2.30;99.90;;;;;;5019018;28;20109;-91
2021/12/19 00:50:02;;;;;;;29.40;9.93;;;2.30;99.90;;;;;;5011299;28;20403;-91
2021/12/19 00:52:30;;;;;;;29.55;9.27;;;2.20;99.90;;;;;;5003239;28;20018;-91
2021/12/19 00:54:58;;;;;;;23.57;9.17;;;2.20;99.90;;;;;;4997703;28;20029;-91
2021/12/19 00:57:24;;;;;;;27.90;9.03;;;2.20;99.90;;;;;;4997664;28;20388;-91
2021/12/19 00:59:52;;;;;;;25.93;10.13;;;2.20;99.90;;;;;;4997410;28;20026;-91
2021/12/19 01:02:18;;;;;;;26.53;8.70;;;2.30;99.90;;;;;;4997583;28;20018;-91
2021/12/19 01:04:50;;;;;;;25.13;10.07;;;2.20;99.90;;;;;;4995755;28;20045;-91
2021/12/19 01:07:19;;;;;;;28.38;9.27;;;2.20;99.90;;;;;;4996782;28;20026;-91
2021/12/19 01:09:47;;;;;;;27.50;10.00;;;2.30;99.90;;;;;;5016415;28;20098;-91
2021/12/19 01:12:12;;;;;;;29.30;10.53;;;2.30;99.90;;;;;;5006197;28;20053;-91
2021/12/19 01:14:38;;;;;;;32.33;10.07;;;2.40;99.90;;;;;;5013848;28;20056;-90
2021/12/19 01:17:13;;;;;;;26.37;9.83;;;2.30;99.90;;;;;;5015258;28;20466;-91
2021/12/19 01:19:42;;;;;;;33.90;10.77;;;2.40;99.90;;;;;;5011238;28;20036;-91
2021/12/19 01:22:08;;;;;;;33.77;11.90;;;2.30;99.90;;;;;;5014279;28;20025;-91
2021/12/19 01:24:37;;;;;;;34.03;10.13;;;2.30;99.90;;;;;;5006743;28;20026;-91
2021/12/19 01:27:08;;;;;;;29.93;10.60;;;2.20;99.90;;;;;;5012372;28;20149;-91
2021/12/19 01:29:37;;;;;;;32.23;11.40;;;2.30;99.90;;;;;;5015561;28;20037;-91
2021/12/19 01:32:03;;;;;;;29.73;10.30;;;2.30;99.90;;;;;;5008106;28;20100;-90
2021/12/19 01:34:35;;;;;;;34.07;11.33;;;2.30;99.90;;;;;;5000057;28;20054;-91
2021/12/19 01:37:18;;;;;;;23.75;8.20;;;2.30;99.90;;;;;;5012488;28;20564;-90
2021/12/19 01:39:47;;;;;;;31.33;11.40;;;2.30;99.90;;;;;;5019691;28;20494;-91
2021/12/19 01:42:13;;;;;;;37.67;10.80;;;2.40;99.90;;;;;;5020005;28;20047;-90
2021/12/19 01:44:47;;;;;;;29.20;9.97;;;2.10;99.90;;;;;;5016728;28;20399;-90
2021/12/19 01:47:17;;;;;;;35.83;9.77;;;2.10;99.90;;;;;;4999887;28;20018;-90
2021/12/19 01:49:45;;;;;;;27.70;9.43;;;2.10;99.90;;;;;;4999777;28;20076;-90
2021/12/19 01:52:11;;;;;;;32.73;10.27;;;2.30;99.90;;;;;;5000266;28;20503;-91
2021/12/19 01:54:39;;;;;;;32.10;10.63;;;2.40;99.90;;;;;;5012303;28;20032;-91
2021/12/19 01:57:05;;;;;;;33.07;10.30;;;2.40;99.90;;;;;;5019709;28;20036;-90
2021/12/19 01:59:33;;;;;;;30.07;10.30;;;2.40;99.90;;;;;;5020175;28;20116;-91
2021/12/19 02:02:05;;;;;;;31.97;10.20;;;2.40;99.90;;;;;;5023246;28;20117;-91
2021/12/19 02:04:33;;;;;;;24.33;7.80;;;2.50;99.90;;;;;;5019975;28;20022;-91
2021/12/19 02:06:59;;;;;;;26.17;9.97;;;2.30;99.90;;;;;;5005167;28;20476;-90
2021/12/19 02:09:27;;;;;;;34.47;10.50;;;2.40;99.90;;;;;;5001294;28;20029;-90
2021/12/19 02:11:54;;;;;;;35.73;11.33;;;2.50;99.90;;;;;;5001096;28;20495;-91
2021/12/19 02:14:48;;;;;;;29.93;10.33;;;2.50;99.90;;;;;;5018542;28;20036;-90
2021/12/19 02:17:14;;;;;;;32.93;9.93;;;2.60;99.90;;;;;;5018407;28;20029;-91
2021/12/19 02:19:40;;;;;;;36.67;10.87;;;2.60;99.90;;;;;;5019054;28;20029;-91
2021/12/19 02:22:06;;;;;;;31.00;9.90;;;2.60;99.90;;;;;;5018462;28;20100;-90
2021/12/19 02:24:34;;;;;;;35.53;9.37;;;2.50;99.90;;;;;;5018545;28;20109;-91
2021/12/19 02:27:00;;;;;;;38.90;9.20;;;2.50;99.90;;;;;;5013055;28;20036;-90
2021/12/19 02:29:28;;;;;;;38.40;9.87;;;2.40;99.90;;;;;;5012287;28;20045;-90
2021/12/19 02:31:53;;;;;;;32.30;9.17;;;2.40;99.90;;;;;;5018313;28;20491;-91
2021/12/19 02:34:26;;;;;;;27.40;9.13;;;2.30;99.90;;;;;;5017971;28;20036;-90
2021/12/19 02:37:00;;;;;;;;;;;2.30;99.90;;;;;;5018097;28;20163;-90
2021/12/19 02:48:13;;;;;;;36.87;10.60;;;2.20;99.90;;;;;;4974936;28;20231;-91
2021/12/19 02:50:47;;;;;;;47.70;9.70;;;2.20;99.90;;;;;;5010161;28;20033;-91
2021/12/19 02:53:17;;;;;;;42.33;10.47;;;2.30;99.90;;;;;;5022307;28;20521;-91
2021/12/19 02:55:45;;;;;;;35.83;10.50;;;2.20;99.90;;;;;;5003152;28;20030;-90
2021/12/19 02:58:11;;;;;;;37.13;10.13;;;2.30;99.90;;;;;;4998124;28;20040;-91
2021/12/19 03:00:38;;;;;;;59.00;10.60;;;2.40;99.90;;;;;;4998276;28;20050;-91
2021/12/19 03:03:09;;;;;;;40.27;11.03;;;2.30;99.90;;;;;;5003981;28;20454;-90
2021/12/19 03:05:37;;;;;;;20.47;6.43;;;2.20;99.90;;;;;;5018524;28;20048;-91
2021/12/19 03:08:08;;;;;;;27.97;10.00;;;2.00;99.90;;;;;;5018142;28;20280;-90
2021/12/19 03:13:37;;;;;;;29.67;10.23;;;2.20;99.90;;;;;;5035658;28;20121;-90
2021/12/19 03:18:50;;;;;;;34.77;9.40;;;2.20;99.90;;;;;;5035524;28;20516;-90
2021/12/19 03:21:17;;;;;;;36.23;10.00;;;2.10;99.90;;;;;;5017326;28;20463;-91
2021/12/19 03:23:49;;;;;;;54.00;8.30;;;2.10;99.90;;;;;;5017876;28;20032;-91
2021/12/19 03:26:15;;;;;;;53.80;8.43;;;2.10;99.90;;;;;;5017818;28;20062;-90
2021/12/19 03:28:41;;;;;;;28.13;8.67;;;2.10;99.90;;;;;;5007819;28;20041;-91
2021/12/19 03:31:06;;;;;;;33.43;8.87;;;2.00;99.90;;;;;;4997779;28;20084;-90
2021/12/19 03:33:35;;;;;;;24.50;8.97;;;2.10;99.90;;;;;;4997132;28;20091;-91
2021/12/19 03:36:01;;;;;;;36.00;8.90;;;2.20;99.90;;;;;;4997340;28;20053;-91
2021/12/19 03:38:29;;;;;;;27.83;8.60;;;2.20;99.90;;;;;;5011995;28;20033;-91
2021/12/19 03:41:13;;;;;;;37.00;8.50;;;2.30;99.90;;;;;;5017175;28;20032;-90
2021/12/19 03:43:39;;;;;;;25.70;7.80;;;2.30;99.90;;;;;;5016693;28;20029;-91
2021/12/19 03:46:06;;;;;;;25.90;8.93;;;2.40;99.90;;;;;;5006991;28;20030;-90
2021/12/19 03:48:32;;;;;;;26.17;8.93;;;2.40;99.90;;;;;;5002419;28;20037;-91
2021/12/19 03:50:58;;;;;;;27.23;8.03;;;2.50;99.90;;;;;;5005199;28;20026;-90
2021/12/19 03:53:27;;;;;;;27.17;8.53;;;2.50;99.90;;;;;;4996479;28;20530;-91
2021/12/19 03:55:53;;;;;;;24.57;8.03;;;2.50;99.90;;;;;;4996780;28;20030;-90
2021/12/19 03:58:20;;;;;;;27.33;7.97;;;2.40;99.90;;;;;;5017525;28;20091;-90
2021/12/19 04:00:47;;;;;;;25.43;8.67;;;2.40;99.90;;;;;;5017191;28;20025;-90
2021/12/19 04:03:31;;;;;;;26.47;7.70;;;2.30;99.90;;;;;;5031215;28;20025;-90
2021/12/19 04:05:57;;;;;;;25.97;8.23;;;2.30;99.90;;;;;;5033821;28;20026;-90
2021/12/19 04:08:24;;;;;;;26.23;8.07;;;2.30;99.90;;;;;;5015936;28;20109;-91
2021/12/19 04:10:51;;;;;;;22.90;8.10;;;2.30;99.90;;;;;;5016250;28;20033;-90
2021/12/19 04:13:18;;;;;;;21.80;7.53;;;2.40;99.90;;;;;;5016258;28;20044;-90
2021/12/19 04:15:56;;;;;;;26.17;7.13;;;2.40;99.90;;;;;;5029314;28;20112;-90
2021/12/19 04:18:22;;;;;;;29.07;8.37;;;2.50;99.90;;;;;;5033344;28;20040;-91
2021/12/19 04:20:51;;;;;;;34.37;7.50;;;2.40;99.90;;;;;;5011716;28;20030;-90
2021/12/19 04:23:17;;;;;;;34.20;8.77;;;2.40;99.90;;;;;;5016676;28;20111;-90
2021/12/19 04:25:43;;;;;;;52.37;8.00;;;2.40;99.90;;;;;;5014309;28;20033;-90
2021/12/19 04:28:08;;;;;;;22.27;6.73;;;2.20;99.90;;;;;;5018500;23;20194;-85
2021/12/19 04:30:34;;;;;;;26.43;7.63;;;2.10;99.90;;;;;;4985522;28;20401;-84
2021/12/19 04:33:10;;;;;;;21.27;6.30;;;2.20;99.90;;;;;;4979109;28;20045;-84
2021/12/19 04:35:39;;;;;;;22.80;7.73;;;2.10;99.90;;;;;;4974174;28;20041;-83
2021/12/19 04:52:09;;;;;;;24.67;6.87;;;1.70;99.90;;;;;;4989416;28;20099;-85
2021/12/19 04:54:27;;;;;;;20.80;6.07;;;1.60;99.90;;;;;;4980465;28;20125;-84
2021/12/19 05:15:24;;;;;;;30.53;6.37;;;1.80;99.90;;;;;;4993345;28;20396;-84
2021/12/19 05:17:50;;;;;;;23.30;6.80;;;1.80;99.90;;;;;;4982656;28;20027;-85
2021/12/19 05:20:21;;;;;;;19.20;6.07;;;1.70;99.90;;;;;;4996946;28;20026;-84
2021/12/19 05:22:52;;;;;;;25.17;7.97;;;1.80;99.90;;;;;;4996712;28;20045;-84
2021/12/19 05:25:18;;;;;;;20.07;5.63;;;1.70;99.90;;;;;;4992594;28;20034;-85
2021/12/19 05:27:45;;;;;;;21.90;6.80;;;1.90;99.90;;;;;;4975968;28;20294;-84
2021/12/19 05:30:13;;;;;;;23.60;6.83;;;1.80;99.90;;;;;;4978130;28;20162;-84
2021/12/19 05:32:44;;;;;;;25.57;6.23;;;1.90;99.90;;;;;;4976380;28;20034;-86
2021/12/19 05:35:13;;;;;;;23.20;6.37;;;1.70;99.90;;;;;;4976371;28;20388;-84
2021/12/19 05:45:52;;;;;;;23.87;6.30;;;1.30;99.90;;;;;;4992500;28;20034;-84
2021/12/19 05:48:17;;;;;;;21.17;6.00;;;1.30;99.90;;;;;;4995485;28;20026;-84
2021/12/19 05:50:43;;;;;;;21.60;5.77;;;1.30;99.90;;;;;;4993744;28;20475;-83
2021/12/19 05:53:11;;;;;;;20.47;5.37;;;1.20;99.90;;;;;;4988214;28;20055;-85
2021/12/19 05:55:37;;;;;;;17.93;4.87;;;1.20;99.90;;;;;;4995059;28;20117;-84
2021/12/19 05:58:03;;;;;;;16.90;5.07;;;1.20;99.90;;;;;;4994079;28;20022;-84
2021/12/19 06:00:29;;;;;;;17.33;5.80;;;1.20;99.90;;;;;;4987646;28;20022;-84
2021/12/19 06:02:55;;;;;;;21.43;5.60;;;1.00;99.90;;;;;;4988812;28;20023;-84
2021/12/19 06:05:21;;;;;;;18.63;5.73;;;1.10;99.90;;;;;;4989316;28;20705;-84
2021/12/19 06:07:47;;;;;;;19.13;5.47;;;1.20;99.90;;;;;;4992277;28;20019;-84
2021/12/19 06:10:13;;;;;;;18.83;6.10;;;1.30;99.90;;;;;;4993737;28;20027;-84
2021/12/19 06:12:39;;;;;;;16.87;4.93;;;1.40;99.90;;;;;;4988100;28;20076;-85
2021/12/19 06:15:08;;;;;;;22.83;5.40;;;1.50;99.90;;;;;;4988606;28;20113;-84
2021/12/19 06:17:33;;;;;;;18.03;4.77;;;1.50;99.90;;;;;;4993930;28;20033;-84
2021/12/19 06:19:59;;;;;;;17.93;5.27;;;1.60;99.90;;;;;;4994565;28;20026;-86
2021/12/19 06:22:25;;;;;;;15.03;5.13;;;1.60;99.90;;;;;;4994263;28;20516;-84
2021/12/19 06:24:50;;;;;;;15.27;4.83;;;1.50;99.90;;;;;;4993634;28;20039;-84
2021/12/19 06:27:16;;;;;;;18.20;5.57;;;1.50;99.90;;;;;;4994643;28;20141;-83
2021/12/19 06:29:41;;;;;;;19.80;5.17;;;1.50;99.90;;;;;;4983744;28;20034;-84
2021/12/19 06:32:07;;;;;;;16.00;4.67;;;1.60;99.90;;;;;;4995120;28;20065;-84
2021/12/19 06:34:33;;;;;;;15.20;4.30;;;1.50;99.90;;;;;;4986827;28;20041;-84
2021/12/19 06:36:59;;;;;;;16.07;4.87;;;1.50;99.90;;;;;;4990159;28;20026;-84
2021/12/19 06:39:24;;;;;;;18.33;4.63;;;1.50;99.90;;;;;;4995540;28;20507;-82
2021/12/19 06:41:50;;;;;;;17.70;4.90;;;1.30;99.90;;;;;;4993932;28;20037;-84
2021/12/19 06:44:16;;;;;;;11.87;4.07;;;1.20;99.90;;;;;;4992825;28;20023;-85
2021/12/19 06:46:42;;;;;;;14.53;4.30;;;1.30;99.90;;;;;;4992052;28;20093;-85
2021/12/19 06:49:08;;;;;;;11.00;4.00;;;1.40;99.90;;;;;;4994929;28;20050;-84
2021/12/19 06:51:34;;;;;;;10.93;4.00;;;1.30;99.90;;;;;;4992632;28;20030;-84
2021/12/19 06:54:00;;;;;;;14.53;4.37;;;1.20;99.90;;;;;;4990868;28;20038;-85
2021/12/19 06:56:29;;;;;;;14.90;4.07;;;1.10;99.90;;;;;;4994733;28;20046;-85
2021/12/19 06:58:55;;;;;;;10.07;3.60;;;1.10;99.90;;;;;;4990727;28;20041;-85
2021/12/19 07:01:20;;;;;;;15.00;4.50;;;1.00;99.90;;;;;;4993254;28;20038;-85
2021/12/19 07:03:46;;;;;;;15.57;3.73;;;1.00;99.90;;;;;;4982511;28;20393;-85
2021/12/19 07:06:14;;;;;;;13.93;3.73;;;1.10;99.90;;;;;;4983045;28;20037;-85
2021/12/19 07:08:40;;;;;;;10.37;3.47;;;1.10;99.90;;;;;;4990498;28;20090;-85
2021/12/19 07:11:06;;;;;;;12.90;3.83;;;1.00;99.90;;;;;;4994647;28;20065;-85
2021/12/19 07:13:31;;;;;;;15.63;4.37;;;1.00;99.90;;;;;;4993550;28;20109;-84
2021/12/19 07:15:57;;;;;;;9.23;3.87;;;1.10;99.90;;;;;;4991725;28;20507;-85
2021/12/19 07:18:23;;;;;;;15.33;3.97;;;1.20;99.90;;;;;;4991408;28;20026;-86
2021/12/19 07:20:49;;;;;;;13.07;3.67;;;1.20;99.90;;;;;;4991762;28;20034;-85
2021/12/19 07:23:17;;;;;;;11.53;3.17;;;1.20;99.90;;;;;;4994098;28;20091;-85
2021/12/19 07:25:44;;;;;;;8.93;3.33;;;1.20;99.90;;;;;;4986123;28;20018;-85
2021/12/19 07:28:11;;;;;;;9.50;3.40;;;1.20;99.90;;;;;;4980947;28;20034;-85
2021/12/19 07:30:37;;;;;;;14.00;3.50;;;1.20;99.90;;;;;;4995413;28;20209;-85
2021/12/19 07:33:04;;;;;;;7.83;2.80;;;1.20;99.90;;;;;;4993688;28;20031;-85
2021/12/19 07:35:34;;;;;;;10.53;3.43;;;1.10;99.90;;;;;;4991345;28;20033;-84
2021/12/19 07:38:00;;;;;;;12.97;3.10;;;1.10;99.90;;;;;;4990878;28;20035;-86
2021/12/19 07:40:28;;;;;;;11.07;3.03;;;1.20;99.90;;;;;;4987038;28;20022;-85
2021/12/19 07:42:58;;;;;;;12.00;3.10;;;1.10;99.90;;;;;;4988403;28;20027;-85
2021/12/19 07:45:24;;;;;;;7.40;2.80;;;1.10;99.90;;;;;;4991026;28;20011;-84
2021/12/19 07:47:49;;;;;;;8.60;2.83;;;1.20;99.90;;;;;;4983902;28;20085;-85
2021/12/19 07:50:15;;;;;;;11.27;3.20;;;1.30;99.90;;;;;;4990772;28;20392;-85
2021/12/19 07:52:41;;;;;;;9.70;3.77;;;1.30;99.90;;;;;;4990413;28;20033;-84
2021/12/19 07:55:08;;;;;;;11.93;3.57;;;1.30;99.90;;;;;;4991080;28;20018;-85
2021/12/19 07:57:36;;;;;;;12.77;2.93;;;1.20;99.90;;;;;;4990298;28;20030;-85
2021/12/19 08:00:04;;;;;;;9.43;3.27;;;1.10;99.90;;;;;;4987412;28;20511;-85
2021/12/19 08:02:30;;;;;;;7.60;3.07;;;1.00;99.90;;;;;;4988898;28;20405;-85
2021/12/19 08:04:56;;;;;;;10.37;3.37;;;0.90;99.90;;;;;;4988176;28;20133;-85
2021/12/19 08:07:23;;;;;;;8.40;2.77;;;1.00;99.90;;;;;;4990971;28;20396;-85
2021/12/19 08:10:11;;;;;;;12.07;4.37;;;1.00;99.90;;;;;;4990868;28;20038;-85
2021/12/19 08:12:38;;;;;;;8.10;2.57;;;1.00;99.90;;;;;;4989932;28;20177;-84
2021/12/19 08:15:06;;;;;;;10.20;3.00;;;1.00;99.90;;;;;;4989936;28;20034;-85
2021/12/19 08:17:32;;;;;;;6.70;2.60;;;1.00;99.90;;;;;;4990313;28;20511;-84
2021/12/19 08:19:59;;;;;;;9.10;2.73;;;1.10;99.90;;;;;;4990398;28;20038;-85
2021/12/19 08:22:27;;;;;;;6.33;2.00;;;1.10;99.90;;;;;;4995319;28;20023;-85
2021/12/19 08:24:57;;;;;;;9.50;2.63;;;1.10;99.90;;;;;;4993169;28;20054;-84
2021/12/19 08:27:26;;;;;;;9.50;2.67;;;1.00;99.90;;;;;;5005157;28;20030;-84
2021/12/19 08:29:54;;;;;;;9.47;2.97;;;0.90;99.90;;;;;;5002447;28;20027;-85
2021/12/19 08:32:21;;;;;;;8.07;2.50;;;1.00;99.90;;;;;;4990190;28;20019;-84
2021/12/19 08:34:46;;;;;;;12.03;2.87;;;0.90;99.90;;;;;;4989490;28;20030;-85
2021/12/19 08:37:15;;;;;;;7.13;2.80;;;0.90;99.90;;;;;;4986424;28;20476;-85
2021/12/19 08:39:42;;;;;;;7.13;2.90;;;0.80;99.90;;;;;;4987464;28;20051;-85
2021/12/19 08:42:14;;;;;;;7.63;2.90;;;0.80;99.90;;;;;;4990965;28;20058;-83
2021/12/19 08:44:45;;;;;;;10.05;2.50;;;0.80;99.90;;;;;;4998740;28;20109;-86
2021/12/19 08:47:11;;;;;;;7.85;2.10;;;0.80;99.90;;;;;;4984112;28;20026;-85
2021/12/19 08:49:37;;;;;;;7.57;2.40;;;0.80;99.90;;;;;;4993415;28;20066;-84
2021/12/19 08:52:04;;;;;;;8.43;2.30;;;0.80;99.90;;;;;;4985108;28;20033;-84
2021/12/19 08:54:29;;;;;;;7.70;1.87;;;0.80;99.90;;;;;;4994545;28;20037;-85
2021/12/19 08:56:55;;;;;;;9.73;3.33;;;0.90;99.90;;;;;;4994336;28;20022;-85
2021/12/19 08:59:21;;;;;;;8.83;2.60;;;0.90;99.90;;;;;;4993118;28;20018;-85
2021/12/19 09:01:48;;;;;;;4.83;1.73;;;1.00;99.90;;;;;;4991785;28;20049;-85
2021/12/19 09:04:14;;;;;;;7.67;2.40;;;0.90;99.90;;;;;;4994906;28;20062;-85
2021/12/19 09:06:39;;;;;;;5.57;1.93;;;1.00;99.90;;;;;;4992654;28;20029;-85
2021/12/19 09:09:06;;;;;;;6.80;2.37;;;0.90;99.90;;;;;;4988386;28;20030;-85
2021/12/19 09:11:33;;;;;;;5.83;1.67;;;1.00;99.90;;;;;;4993222;28;20426;-85
2021/12/19 09:13:59;;;;;;;7.50;2.33;;;0.90;99.90;;;;;;4990474;28;20026;-85
2021/12/19 09:16:25;;;;;;;5.33;2.07;;;1.10;99.90;;;;;;4994121;28;20065;-85
2021/12/19 09:18:51;;;;;;;9.53;3.13;;;1.30;99.90;;;;;;4990258;28;20030;-84
2021/12/19 09:21:17;;;;;;;5.33;1.83;;;1.40;99.90;;;;;;4989972;28;20053;-84
2021/12/19 09:23:43;;;;;;;7.63;2.03;;;1.30;99.90;;;;;;4992917;28;20019;-86
2021/12/19 09:26:08;;;;;;;8.00;1.60;;;1.30;99.90;;;;;;4994232;28;20033;-86
2021/12/19 09:28:34;;;;;;;5.30;1.50;;;1.40;99.90;;;;;;4987396;28;20448;-85
2021/12/19 09:31:00;;;;;;;6.60;1.87;;;1.40;99.90;;;;;;4993112;28;20038;-84
2021/12/19 09:33:26;;;;;;;3.83;1.27;;;1.50;99.90;;;;;;4994593;28;20087;-86
2021/12/19 09:35:52;;;;;;;4.77;1.60;;;1.60;99.90;;;;;;4989928;28;20078;-85
2021/12/19 09:38:20;;;;;;;7.70;1.97;;;1.60;99.90;;;;;;4979338;28;20121;-85
2021/12/19 09:40:46;;;;;;;4.87;1.60;;;1.60;99.90;;;;;;4994885;28;20105;-84
2021/12/19 09:43:41;;;;;;;5.93;1.63;;;1.60;99.90;;;;;;4996242;28;20023;-86
2021/12/19 09:46:11;;;;;;;4.53;1.70;;;1.60;99.90;;;;;;4991155;28;20052;-86
2021/12/19 09:48:38;;;;;;;4.03;1.00;;;1.60;99.90;;;;;;4996503;28;20072;-86
2021/12/19 09:51:04;;;;;;;5.53;1.70;;;1.60;99.90;;;;;;4995593;28;20034;-86
2021/12/19 09:53:30;;;;;;;5.00;1.37;;;1.70;99.90;;;;;;4993371;28;20037;-86
2021/12/19 09:55:56;;;;;;;5.93;1.50;;;1.80;99.90;;;;;;4995617;28;20027;-84
2021/12/19 09:58:21;;;;;;;7.33;2.10;;;1.80;99.90;;;;;;4991827;28;20034;-86
2021/12/19 10:00:53;;;;;;;3.90;1.47;;;1.80;99.90;;;;;;4996149;28;20015;-85
2021/12/19 10:03:20;;;;;;;5.97;1.20;;;1.90;99.90;;;;;;4992555;28;20460;-86
2021/12/19 10:05:45;;;;;;;4.93;1.70;;;1.90;99.90;;;;;;4995950;28;20156;-86
2021/12/19 10:08:21;;;;;;;4.13;1.20;;;2.00;99.90;;;;;;4994550;28;20054;-86
2021/12/19 10:10:55;;;;;;;4.67;1.33;;;2.00;99.90;;;;;;4993667;28;20045;-85
2021/12/19 10:13:32;;;;;;;4.33;1.40;;;2.10;99.90;;;;;;4992414;28;20049;-86
2021/12/19 10:15:58;;;;;;;4.40;1.37;;;2.00;99.90;;;;;;4996002;28;20029;-86
2021/12/19 10:18:23;;;;;;;5.33;1.30;;;2.00;99.90;;;;;;4985936;28;20035;-86
2021/12/19 10:20:58;;;;;;;2.87;0.80;;;2.10;99.90;;;;;;4996722;28;20046;-86
2021/12/19 10:23:28;;;;;;;6.70;1.27;;;2.00;99.90;;;;;;4991921;28;20026;-85
2021/12/19 10:26:06;;;;;;;3.43;1.17;;;2.00;99.90;;;;;;4991959;28;20030;-86
2021/12/19 10:28:34;;;;;;;3.83;1.40;;;2.00;99.90;;;;;;4990563;28;20407;-85
2021/12/19 10:31:02;;;;;;;5.17;1.23;;;2.00;99.90;;;;;;4987213;28;20030;-86
2021/12/19 10:33:32;;;;;;;4.50;1.20;;;1.90;99.90;;;;;;4980062;28;20501;-87
2021/12/19 10:36:00;;;;;;;4.60;1.70;;;1.90;99.90;;;;;;4982675;28;20043;-85
2021/12/19 10:38:29;;;;;;;4.80;1.40;;;1.90;99.90;;;;;;4988744;28;20041;-86
2021/12/19 10:41:24;;;;;;;5.17;1.60;;;2.00;99.90;;;;;;4991600;28;20110;-86
2021/12/19 10:44:01;;;;;;;2.83;0.87;;;2.00;99.90;;;;;;4983772;28;20053;-85
2021/12/19 10:46:32;;;;;;;4.23;0.93;;;2.00;99.90;;;;;;4990853;28;20027;-86
2021/12/19 10:49:00;;;;;;;4.67;1.30;;;1.90;99.90;;;;;;4982430;28;20038;-86
2021/12/19 10:51:29;;;;;;;5.53;1.27;;;1.90;99.90;;;;;;4993903;28;20045;-87
2021/12/19 10:53:57;;;;;;;4.27;1.30;;;1.80;99.90;;;;;;4993957;28;20026;-87
2021/12/19 10:56:36;;;;;;;5.17;1.43;;;1.90;99.90;;;;;;4992039;28;20026;-87
2021/12/19 10:59:04;;;;;;;4.87;1.27;;;2.10;99.90;;;;;;4990831;28;20049;-87
2021/12/19 11:01:41;;;;;;;4.03;1.30;;;2.30;99.90;;;;;;4978480;28;20026;-85
2021/12/19 11:04:10;;;;;;;3.40;1.10;;;2.40;99.90;;;;;;4990157;28;20113;-87
2021/12/19 11:06:38;;;;;;;4.27;1.27;;;2.60;99.90;;;;;;4991989;28;20027;-86
2021/12/19 11:09:09;;;;;;;6.37;1.47;;;2.60;99.90;;;;;;4991666;28;20037;-85
2021/12/19 11:11:54;;;;;;;2.43;0.93;;;2.50;99.90;;;;;;4988849;28;20066;-83
2021/12/19 11:14:39;;;;;;;3.57;1.00;;;2.60;99.90;;;;;;4994602;28;20034;-86
2021/12/19 11:17:18;;;;;;;5.70;0.90;;;2.60;99.90;;;;;;4994691;28;20158;-87
2021/12/19 11:19:45;;;;;;;3.73;1.00;;;2.70;99.90;;;;;;4991492;28;20041;-86
2021/12/19 11:22:12;;;;;;;3.57;1.10;;;2.70;99.90;;;;;;4995364;28;20169;-88
2021/12/19 11:24:38;;;;;;;4.30;1.20;;;2.70;99.90;;;;;;4996921;28;20026;-86
2021/12/19 11:27:08;;;;;;;4.73;1.33;;;2.60;99.90;;;;;;4998235;28;20030;-87
2021/12/19 11:29:34;;;;;;;4.43;1.30;;;2.60;99.90;;;;;;4995496;28;20034;-83
2021/12/19 11:32:04;;;;;;;4.33;1.63;;;2.70;99.90;;;;;;4988799;28;20038;-84
2021/12/19 11:34:45;;;;;;;4.00;1.43;;;2.80;99.90;;;;;;4993365;28;20488;-84
2021/12/19 11:37:14;;;;;;;4.13;1.30;;;2.80;99.90;;;;;;4981112;28;20038;-84
2021/12/19 11:39:48;;;;;;;4.50;1.60;;;2.80;99.90;;;;;;4983025;28;20031;-84
2021/12/19 11:42:17;;;;;;;4.60;1.60;;;2.80;99.90;;;;;;4974814;28;20023;-84
2021/12/19 11:45:08;;;;;;;3.90;1.20;;;2.80;99.90;;;;;;4980588;28;20063;-84
2021/12/19 11:47:53;;;;;;;3.80;1.30;;;2.80;99.90;;;;;;4990606;28;20102;-85
2021/12/19 11:50:26;;;;;;;4.00;1.13;;;2.80;99.90;;;;;;4979013;28;20452;-86
2021/12/19 11:52:57;;;;;;;2.77;1.10;;;2.80;99.90;;;;;;4979283;28;20034;-86
2021/12/19 11:55:42;;;;;;;4.93;1.60;;;2.80;99.90;;;;;;4990017;28;20030;-86
2021/12/19 11:58:18;;;;;;;3.43;1.20;;;3.00;99.90;;;;;;4989934;28;20040;-86
2021/12/19 12:00:54;;;;;;;6.07;1.80;;;2.80;99.90;;;;;;4986814;28;20048;-86
2021/12/19 12:03:25;;;;;;;5.20;1.23;;;2.80;99.90;;;;;;5034059;23;20046;-84
2021/12/19 12:06:08;;;;;;;5.90;1.57;;;2.90;99.90;;;;;;4992743;28;20029;-84
2021/12/19 12:08:35;;;;;;;3.53;1.30;;;2.90;99.90;;;;;;4989507;28;20058;-85
2021/12/19 12:11:09;;;;;;;3.60;1.33;;;2.80;99.90;;;;;;4989356;28;20022;-86
2021/12/19 12:13:41;;;;;;;3.90;1.30;;;2.80;99.90;;;;;;4974433;28;20058;-85
2021/12/19 12:16:21;;;;;;;3.65;1.17;;;2.80;99.90;;;;;;4971772;28;20380;-85
2021/12/19 12:18:55;;;;;;;4.77;1.53;;;2.80;99.90;;;;;;4975385;28;20141;-84
2021/12/19 12:23:57;;;;;;;5.17;1.60;;;2.90;99.90;;;;;;4970578;28;20441;-89
2021/12/19 12:26:43;;;;;;;3.70;1.37;;;2.90;99.90;;;;;;4976325;28;20031;-90
2021/12/19 12:29:09;;;;;;;3.20;1.20;;;2.90;99.90;;;;;;4971712;28;20401;-90
2021/12/19 12:31:38;;;;;;;5.67;1.50;;;2.90;99.90;;;;;;4971184;28;20059;-90
2021/12/19 12:34:09;;;;;;;3.63;1.23;;;2.90;99.90;;;;;;4970865;28;20118;-89
2021/12/19 12:36:35;;;;;;;3.77;1.13;;;2.80;99.90;;;;;;4970971;28;20030;-90
2021/12/19 12:39:06;;;;;;;3.40;1.40;;;2.80;99.90;;;;;;4970061;28;20102;-90
2021/12/19 12:44:10;;;;;;;4.47;1.33;;;2.80;99.90;;;;;;4974853;28;20473;-89
2021/12/19 12:46:38;;;;;;;5.73;1.60;;;2.80;99.90;;;;;;4971684;28;20077;-90
2021/12/19 12:49:08;;;;;;;4.27;1.43;;;2.80;99.90;;;;;;4975240;28;20278;-90
2021/12/19 12:51:48;;;;;;;4.27;1.47;;;3.00;99.90;;;;;;4975557;28;20496;-90
2021/12/19 12:54:24;;;;;;;5.13;1.50;;;2.90;99.90;;;;;;4983105;28;20035;-90
2021/12/19 12:56:56;;;;;;;4.47;1.77;;;2.90;99.90;;;;;;4969512;28;20085;-90
2021/12/19 12:59:25;;;;;;;3.40;1.43;;;2.90;99.90;;;;;;4970842;28;20027;-90
2021/12/19 13:02:14;;;;;;;4.23;2.00;;;2.80;99.90;;;;;;4975108;28;20128;-89
2021/12/19 13:04:49;;;;;;;6.43;1.97;;;2.80;99.90;;;;;;4970685;28;20062;-89
2021/12/19 13:07:16;;;;;;;2.93;1.43;;;2.70;99.90;;;;;;4988090;28;20027;-89
2021/12/19 13:09:51;;;;;;;4.03;1.73;;;2.80;99.90;;;;;;5007336;28;20034;-89
2021/12/19 13:12:25;;;;;;;4.20;1.73;;;2.80;99.90;;;;;;4995281;28;20087;-89
2021/12/19 13:14:58;;;;;;;3.97;1.67;;;2.80;99.90;;;;;;4978480;28;20042;-89
2021/12/19 13:17:41;;;;;;;6.97;2.23;;;2.80;99.90;;;;;;4999751;28;20066;-89
2021/12/19 13:20:16;;;;;;;4.53;2.03;;;2.70;99.90;;;;;;4983368;28;20404;-89
2021/12/19 13:22:46;;;;;;;5.13;1.77;;;2.80;99.90;;;;;;4975544;28;20020;-89
2021/12/19 13:25:33;;;;;;;5.47;1.67;;;2.80;99.90;;;;;;4971951;28;20038;-90
2021/12/19 13:28:02;;;;;;;4.97;1.67;;;2.80;99.90;;;;;;4968799;28;20029;-90
2021/12/19 13:30:30;;;;;;;4.17;1.80;;;2.80;99.90;;;;;;4978230;28;20027;-90
2021/12/19 13:33:01;;;;;;;5.33;1.70;;;2.80;99.90;;;;;;4958731;28;20023;-90
2021/12/19 13:35:41;;;;;;;4.53;1.50;;;3.00;99.90;;;;;;4956117;28;20447;-90
2021/12/19 13:38:13;;;;;;;4.67;1.83;;;3.00;99.90;;;;;;4965412;28;20441;-90
2021/12/19 13:40:44;;;;;;;2.63;1.17;;;3.00;99.90;;;;;;4992796;28;20057;-90
2021/12/19 13:43:30;;;;;;;6.53;2.33;;;3.10;99.90;;;;;;4975835;28;20029;-88
2021/12/19 13:46:16;;;;;;;5.27;2.23;;;3.10;99.90;;;;;;4988422;28;20062;-90
2021/12/19 13:48:49;;;;;;;6.73;2.27;;;3.10;99.90;;;;;;4968489;28;20034;-90
2021/12/19 13:51:38;;;;;;;3.27;1.60;;;3.10;99.90;;;;;;4956239;28;20023;-90
2021/12/19 13:54:05;;;;;;;4.27;1.77;;;3.10;99.90;;;;;;4969138;28;20039;-91
2021/12/19 13:56:34;;;;;;;4.63;1.70;;;3.20;99.90;;;;;;4975921;28;20027;-91
2021/12/19 13:59:04;;;;;;;4.77;1.90;;;3.10;99.90;;;;;;4980878;28;20035;-89
2021/12/19 14:01:32;;;;;;;4.30;1.83;;;3.10;99.90;;;;;;4977382;28;20022;-89
2021/12/19 14:04:17;;;;;;;5.47;1.50;;;3.10;99.90;;;;;;4980113;28;20062;-89
2021/12/19 14:06:48;;;;;;;3.90;1.77;;;3.10;99.90;;;;;;4976797;28;20061;-89
2021/12/19 14:09:15;;;;;;;5.33;1.53;;;3.00;99.90;;;;;;4973315;28;20043;-89
2021/12/19 14:11:44;;;;;;;4.67;1.70;;;3.00;99.90;;;;;;4978529;28;20160;-89
2021/12/19 14:14:26;;;;;;;5.23;1.67;;;3.00;99.90;;;;;;4976457;28;20508;-89